createdAt,value
2019-04-26T00:04:05.924Z,30.33
2019-04-26T00:09:14.387Z,27.71
2019-04-26T00:14:19.320Z,19.83
2019-04-26T00:19:25.408Z,21.00
2019-04-26T00:24:29.934Z,23.00
2019-04-26T00:29:34.978Z,28.50
2019-04-26T00:34:38.491Z,16.50
2019-04-26T00:39:43.504Z,24.00
2019-04-26T00:44:48.123Z,12.17
2019-04-26T00:49:55.243Z,19.87
2019-04-26T00:54:58.859Z,22.50
2019-04-26T01:00:04.643Z,19.43
2019-04-26T01:05:11.291Z,21.00
2019-04-26T01:10:19.903Z,17.86
2019-04-26T01:15:23.274Z,22.00
2019-04-26T01:20:28.731Z,15.33
2019-04-26T01:25:54.868Z,17.25
2019-04-26T01:31:02.020Z,22.14
2019-04-26T01:36:12.773Z,32.75
2019-04-26T01:41:13.335Z,18.00
2019-04-26T01:46:18.016Z,18.00
2019-04-26T01:51:39.569Z,19.25
2019-04-26T01:56:43.700Z,23.00
2019-04-26T02:01:52.353Z,15.57
2019-04-26T02:07:00.016Z,17.71
2019-04-26T02:12:07.795Z,21.50
2019-04-26T02:17:11.294Z,20.00
2019-04-26T02:22:17.294Z,15.57
2019-04-26T02:27:24.841Z,15.00
2019-04-26T02:32:33.198Z,21.00
2019-04-26T02:37:39.990Z,28.87
2019-04-26T02:42:47.974Z,20.12
2019-04-26T02:47:55.629Z,18.87
2019-04-26T02:53:01.948Z,15.00
2019-04-26T02:58:07.541Z,20.43
2019-04-26T03:03:15.119Z,16.14
2019-04-26T03:08:23.512Z,13.57
2019-04-26T03:13:32.761Z,21.12
2019-04-26T03:18:39.441Z,25.33
2019-04-26T03:23:57.672Z,17.00
2019-04-26T03:29:01.595Z,25.25
2019-04-26T03:34:24.615Z,24.14
2019-04-26T03:39:34.662Z,19.00
2019-04-26T03:44:58.443Z,24.00
2019-04-26T03:50:09.933Z,22.75
2019-04-26T03:55:23.908Z,19.00
2019-04-26T04:00:30.267Z,25.00
2019-04-26T04:05:35.988Z,26.67
2019-04-26T04:10:46.034Z,26.25
2019-04-26T04:15:53.359Z,24.00
2019-04-26T04:21:09.776Z,22.43
2019-04-26T04:26:15.230Z,26.33
2019-04-26T04:31:32.203Z,29.00
2019-04-26T04:36:42.289Z,25.57
2019-04-26T04:41:59.284Z,26.62
2019-04-26T04:47:23.653Z,25.37
2019-04-26T04:52:34.791Z,24.67
2019-04-26T04:57:48.640Z,26.37
2019-04-26T05:02:57.551Z,39.13
2019-04-26T05:08:12.631Z,21.75
2019-04-26T05:13:26.372Z,22.13
2019-04-26T05:18:38.039Z,20.00
2019-04-26T05:24:02.599Z,22.00
2019-04-26T05:29:13.195Z,21.62
2019-04-26T05:34:35.800Z,22.87
2019-04-26T05:39:57.437Z,23.87
2019-04-26T05:45:14.374Z,15.71
2019-04-26T05:50:26.804Z,30.62
2019-04-26T05:55:52.194Z,27.71
2019-04-26T06:01:03.699Z,28.50
2019-04-26T06:06:13.191Z,24.37
2019-04-26T06:11:30.823Z,21.00
2019-04-26T06:16:36.152Z,11.17
2019-04-26T06:22:03.475Z,19.87
2019-04-26T06:27:14.154Z,15.71
2019-04-26T06:32:24.129Z,12.00
2019-04-26T06:37:29.506Z,12.00
2019-04-26T06:42:51.079Z,10.00
2019-04-26T06:47:58.757Z,14.29
2019-04-26T06:53:14.912Z,13.00
2019-04-26T06:58:31.816Z,8.20
2019-04-26T07:03:55.571Z,9.83
2019-04-26T07:09:03.770Z,7.00
2019-04-26T07:14:27.084Z,8.67
2019-04-26T07:19:42.099Z,7.00
2019-04-26T07:25:00.105Z,10.33
2019-04-26T07:30:09.854Z,9.20
2019-04-26T07:35:17.059Z,11.00
2019-04-26T07:40:23.610Z,12.17
2019-04-26T07:45:48.854Z,7.50
2019-04-26T07:51:04.534Z,15.71
2019-04-26T07:56:11.299Z,17.40
2019-04-26T08:01:20.465Z,15.29
2019-04-26T08:06:28.213Z,15.00
2019-04-26T08:11:33.694Z,14.33
2019-04-26T08:16:39.181Z,11.83
2019-04-26T08:21:47.990Z,9.50
2019-04-26T08:26:52.889Z,11.67
2019-04-26T08:31:59.997Z,23.14
2019-04-26T08:37:06.723Z,17.86
2019-04-26T08:42:20.021Z,11.00
2019-04-26T08:47:26.322Z,15.50
2019-04-26T08:52:33.159Z,13.00
2019-04-26T08:57:39.587Z,9.67
2019-04-26T09:02:44.896Z,18.00
2019-04-26T09:07:53.420Z,25.57
2019-04-26T09:12:59.247Z,15.00
2019-04-26T09:18:06.143Z,30.67
2019-04-26T09:23:09.481Z,12.50
2019-04-26T09:28:13.434Z,9.17
2019-04-26T09:33:16.683Z,8.00
2019-04-26T09:38:20.770Z,9.00
2019-04-26T09:43:26.366Z,13.71
2019-04-26T09:48:31.354Z,12.50
2019-04-26T09:53:39.521Z,17.00
2019-04-26T09:58:42.597Z,17.00
2019-04-26T10:03:47.642Z,17.14
2019-04-26T10:08:52.704Z,15.00
2019-04-26T10:13:56.662Z,10.33
2019-04-26T10:19:01.002Z,12.00
2019-04-26T10:24:08.818Z,13.00
2019-04-26T10:29:14.564Z,9.83
2019-04-26T10:34:20.070Z,13.71
2019-04-26T10:39:28.512Z,16.00
2019-04-26T10:44:35.642Z,17.71
2019-04-26T10:49:45.549Z,13.67
2019-04-26T10:54:48.381Z,19.33
2019-04-26T10:59:53.305Z,19.00
2019-04-26T11:04:58.271Z,12.00
2019-04-26T11:10:04.812Z,15.00
2019-04-26T11:15:10.709Z,28.33
2019-04-26T11:20:15.542Z,12.29
2019-04-26T11:25:24.635Z,13.86
2019-04-26T11:30:29.334Z,5.00
2019-04-26T11:35:34.948Z,14.43
2019-04-26T11:40:44.307Z,18.20
2019-04-26T11:45:50.247Z,9.00
2019-04-26T11:50:54.754Z,9.80
2019-04-26T11:56:00.194Z,19.67
2019-04-26T12:01:05.038Z,8.00
2019-04-26T12:06:10.554Z,11.00
2019-04-26T12:11:18.577Z,10.00
2019-04-26T12:16:20.847Z,12.00
2019-04-26T12:21:25.594Z,14.00
2019-04-26T12:26:42.142Z,10.33
2019-04-26T12:31:35.158Z,24.67
2019-04-26T12:36:43.361Z,11.29
2019-04-26T12:41:47.345Z,16.00
2019-04-26T12:46:59.092Z,16.00
2019-04-26T12:52:01.987Z,18.00
2019-04-26T12:57:07.631Z,18.00
2019-04-26T13:02:16.531Z,15.17
2019-04-26T13:07:24.283Z,20.29
2019-04-26T13:12:30.824Z,17.00
2019-04-26T13:17:37.372Z,11.86
2019-04-26T13:22:46.270Z,17.62
2019-04-26T13:27:52.732Z,14.71
2019-04-26T13:32:57.391Z,22.25
2019-04-26T13:38:05.141Z,20.86
2019-04-26T13:43:10.536Z,19.00
2019-04-26T13:48:19.267Z,20.29
2019-04-26T13:53:25.831Z,16.14
2019-04-26T13:58:30.146Z,27.67
2019-04-26T14:03:34.884Z,15.29
2019-04-26T14:08:41.259Z,11.17
2019-04-26T14:13:50.266Z,24.75
2019-04-26T14:18:54.093Z,16.83
2019-04-26T14:23:59.880Z,15.14
2019-04-26T14:29:07.311Z,13.50
2019-04-26T14:34:12.138Z,16.40
2019-04-26T14:39:23.787Z,27.13
2019-04-26T14:44:27.122Z,20.00
2019-04-26T14:49:39.618Z,21.75
2019-04-26T14:54:46.021Z,15.71
2019-04-26T14:59:47.370Z,21.00
2019-04-26T15:04:54.006Z,13.43
2019-04-26T15:09:58.431Z,16.00
2019-04-26T15:15:04.182Z,27.75
2019-04-26T15:20:08.870Z,12.00
2019-04-26T15:25:12.770Z,22.20
2019-04-26T15:30:22.029Z,23.12
2019-04-26T15:35:28.376Z,11.00
2019-04-26T15:40:35.164Z,20.62
2019-04-26T15:45:39.850Z,13.33
2019-04-26T15:50:50.602Z,17.86
2019-04-26T15:55:53.348Z,18.71
2019-04-26T16:00:59.731Z,34.25
2019-04-26T16:06:10.499Z,33.75
2019-04-26T16:11:14.927Z,22.50
2019-04-26T16:16:27.918Z,28.38
2019-04-26T16:21:32.423Z,20.00
2019-04-26T16:26:36.844Z,24.50
2019-04-26T16:31:42.207Z,14.33
2019-04-26T16:36:47.101Z,10.50
2019-04-26T16:41:53.468Z,17.62
2019-04-26T16:47:01.958Z,26.71
2019-04-26T16:52:07.079Z,12.50
2019-04-26T16:57:12.180Z,24.12
2019-04-26T17:02:25.539Z,13.00
2019-04-26T17:07:27.446Z,20.80
2019-04-26T17:12:35.231Z,15.67
2019-04-26T17:17:45.228Z,18.62
2019-04-26T17:22:56.873Z,14.50
2019-04-26T17:27:55.975Z,13.00
2019-04-26T17:33:02.606Z,13.29
2019-04-26T17:38:07.927Z,15.86
2019-04-26T17:43:11.511Z,15.67
2019-04-26T17:48:16.482Z,18.33
2019-04-26T17:53:30.818Z,17.00
2019-04-26T17:58:33.999Z,18.29
2019-04-26T18:03:50.595Z,14.17
2019-04-26T18:08:51.187Z,18.67
2019-04-26T18:13:52.364Z,30.86
2019-04-26T18:19:04.473Z,38.00
2019-04-26T18:24:07.307Z,40.50
2019-04-26T18:29:14.877Z,32.50
2019-04-26T18:34:18.514Z,22.67
2019-04-26T18:39:26.286Z,28.50
2019-04-26T18:44:38.378Z,17.29
2019-04-26T18:49:38.047Z,21.00
2019-04-26T18:54:41.447Z,26.00
2019-04-26T18:59:52.882Z,74.00
2019-04-26T19:05:04.165Z,75.44
2019-04-26T19:10:11.732Z,88.50
2019-04-26T19:15:17.334Z,45.00
2019-04-26T19:20:22.712Z,41.60
2019-04-26T19:25:29.910Z,29.37
2019-04-26T19:30:39.899Z,26.00
2019-04-26T19:35:44.008Z,36.00
2019-04-26T19:40:51.911Z,27.62
2019-04-26T19:45:57.714Z,22.29
2019-04-26T19:51:04.954Z,22.33
2019-04-26T19:56:12.358Z,20.00
2019-04-26T20:01:20.960Z,20.71
2019-04-26T20:06:22.575Z,16.00
2019-04-26T20:11:27.383Z,12.33
2019-04-26T20:16:36.452Z,13.33
2019-04-26T20:21:45.425Z,25.71
2019-04-26T20:26:49.898Z,9.50
2019-04-26T20:31:58.867Z,18.09
2019-04-26T20:37:04.685Z,23.29
2019-04-26T20:42:11.951Z,14.14
2019-04-26T20:47:18.400Z,18.29
2019-04-26T20:52:25.104Z,30.12
2019-04-26T20:57:31.286Z,16.20
2019-04-26T21:02:36.299Z,38.00
2019-04-26T21:07:41.784Z,14.33
2019-04-26T21:12:51.605Z,28.57
2019-04-26T21:17:56.629Z,12.00
2019-04-26T21:23:02.609Z,13.67
2019-04-26T21:28:08.647Z,19.71
2019-04-26T21:33:15.232Z,15.57
2019-04-26T21:38:20.614Z,24.50
2019-04-26T21:43:29.570Z,17.71
2019-04-26T21:48:37.393Z,20.62
2019-04-26T21:53:43.832Z,22.50
2019-04-26T21:58:47.796Z,33.57
2019-04-26T22:03:55.515Z,25.67
2019-04-26T22:08:58.971Z,25.00
2019-04-26T22:14:03.203Z,21.71
2019-04-26T22:19:08.882Z,19.43
2019-04-26T22:24:14.399Z,12.17
2019-04-26T22:29:22.968Z,24.87
2019-04-26T22:34:30.599Z,24.63
2019-04-26T22:39:40.012Z,24.00
2019-04-26T22:44:46.294Z,25.88
2019-04-26T22:49:50.018Z,27.00
2019-04-26T22:54:57.002Z,21.29
2019-04-26T23:00:03.404Z,24.14
2019-04-26T23:05:09.203Z,22.00
2019-04-26T23:10:15.328Z,26.00
2019-04-26T23:15:19.072Z,23.25
2019-04-26T23:20:29.156Z,29.75
2019-04-26T23:25:34.356Z,25.12
2019-04-26T23:30:39.686Z,22.00
2019-04-26T23:35:45.740Z,17.67
2019-04-26T23:40:49.806Z,18.86
2019-04-26T23:45:54.419Z,20.29
2019-04-26T23:51:03.894Z,23.62
2019-04-26T23:56:05.058Z,18.40
